Observations for PIACENZA IT-AFB, Italy (LIMS)

LIMS 251755Z 12005KT CAVOK 27/22 Q1016  
LIMS 251755Z 12005KT CAVOK 27/22 Q1016 RMK SKC VIS MIN 9999 WIND THR30 12004KT BLU
LIMS 251655Z 13005KT 100V180 CAVOK 29/21 Q1016  
LIMS 251655Z 13005KT 100V180 CAVOK 29/21 Q1016 RMK SKC VIS MIN 9999 WIND THR30 12005KT BLU
LIMS 251555Z 15006KT 110V180 9999 FEW050 30/21 Q1016
LIMS 251555Z 15006KT 110V180 9999 FEW050 30/21 Q1016 RMK FEW VIS MIN 9999 WIND THR30 12006KT BLU
LIMS 251455Z 06006KT 020V120 9999 FEW050 31/20 Q1016
LIMS 251455Z 06006KT 020V120 9999 FEW050 31/20 Q1016 RMK FEW VIS MIN 9999 WIND THR30 09006KT BLU
LIMS 251355Z 06006KT 360V150 CAVOK 31/20 Q1016  
LIMS 251355Z 06006KT 360V150 CAVOK 31/20 Q1016 RMK SKC VIS MIN 9999 WIND THR30 03004KT BLU
LIMS 251255Z 11005KT 030V130 9999 FEW040 30/20 Q1016
LIMS 251255Z 11005KT 030V130 9999 FEW040 30/20 Q1016 RMK FEW VIS MIN 9999 WIND THR30 06006KT BLU
LIMS 251155Z 09004KT 050V120 CAVOK 30/22 Q1017  
LIMS 251155Z 09004KT 050V120 CAVOK 30/22 Q1017 RMK SKC VIS MIN 9999 WIND THR30 11003KT BLU
LIMS 251055Z 14004KT CAVOK 29/22 Q1018  
LIMS 251055Z 14004KT CAVOK 29/22 Q1018 RMK SKC VIS MIN 9999 WIND THR30 10004KT BLU
LIMS 250955Z 03003KT CAVOK 27/22 Q1018  
LIMS 250955Z 03003KT CAVOK 27/22 Q1018 RMK SKC VIS MIN 9999 WIND THR30 13003KT BLU
LIMS 250855Z 02003KT CAVOK 26/23 Q1018  
LIMS 250855Z 02003KT CAVOK 26/23 Q1018 RMK SKC VIS MIN 9999 WIND THR30 05003KT BLU
LIMS 250755Z 02003KT CAVOK 25/22 Q1018  
LIMS 250755Z 02003KT CAVOK 25/22 Q1018 RMK SKC VIS MIN 9999 WIND THR30 06002KT BLU
LIMS 250655Z 26005KT CAVOK 22/22 Q1018  
LIMS 250655Z 26005KT CAVOK 22/22 Q1018 RMK SKC VIS MIN 9999 WIND THR30 28001KT BLU
LIMS 250555Z 26005KT 210V300 CAVOK 19/19 Q1017  
LIMS 250555Z 26005KT 210V300 CAVOK 19/19 Q1017 RMK SKC VIS MIN 9999 WIND THR30 27002KT BLU